createdAt,value
2022-11-30T00:01:24.992Z,2.00
2022-11-30T00:03:55.589Z,2.00
2022-11-30T00:06:23.669Z,2.00
2022-11-30T00:08:53.694Z,2.00
2022-11-30T00:11:21.732Z,1.90
2022-11-30T00:13:48.880Z,1.90
2022-11-30T00:16:16.073Z,1.90
2022-11-30T00:18:42.812Z,1.90
2022-11-30T00:21:12.996Z,1.90
2022-11-30T00:23:41.956Z,2.00
2022-11-30T00:26:11.848Z,2.00
2022-11-30T00:28:39.731Z,1.90
2022-11-30T00:31:10.179Z,2.00
2022-11-30T00:33:38.486Z,1.90
2022-11-30T00:36:07.775Z,2.00
2022-11-30T00:38:34.481Z,2.00
2022-11-30T00:41:01.896Z,2.00
2022-11-30T00:43:29.062Z,2.00
2022-11-30T00:45:55.818Z,2.00
2022-11-30T00:48:22.587Z,1.90
2022-11-30T00:50:50.924Z,1.90
2022-11-30T00:53:18.449Z,1.90
2022-11-30T00:55:45.401Z,1.80
2022-11-30T00:58:12.594Z,1.90
2022-11-30T01:00:39.498Z,1.90
2022-11-30T01:03:06.462Z,1.80
2022-11-30T01:05:34.414Z,1.90
2022-11-30T01:08:02.645Z,1.90
2022-11-30T01:10:29.571Z,1.90
2022-11-30T01:12:56.272Z,1.80
2022-11-30T01:15:23.124Z,1.80
2022-11-30T01:17:50.017Z,1.90
2022-11-30T01:20:16.702Z,1.90
2022-11-30T01:22:43.334Z,1.80
2022-11-30T01:25:10.237Z,1.80
2022-11-30T01:27:36.891Z,1.90
2022-11-30T01:30:05.251Z,1.80
2022-11-30T01:32:32.041Z,1.80
2022-11-30T01:34:58.707Z,1.90
2022-11-30T01:37:25.375Z,1.80
2022-11-30T01:39:52.005Z,1.90
2022-11-30T01:42:19.956Z,1.90
2022-11-30T01:45:05.876Z,1.90
2022-11-30T01:47:47.716Z,1.90
2022-11-30T01:50:20.967Z,1.90
2022-11-30T01:52:55.525Z,1.90
2022-11-30T01:55:32.575Z,2.00
2022-11-30T01:58:09.689Z,2.00
2022-11-30T02:00:36.334Z,2.00
2022-11-30T02:03:06.251Z,1.90
2022-11-30T02:05:36.495Z,1.90
2022-11-30T02:08:03.617Z,1.90
2022-11-30T02:10:34.337Z,2.00
2022-11-30T02:13:34.803Z,2.00
2022-11-30T02:16:13.086Z,2.00
2022-11-30T02:18:48.591Z,2.00
2022-11-30T02:21:30.157Z,2.00
2022-11-30T02:24:37.040Z,2.10
2022-11-30T02:27:26.068Z,2.10
2022-11-30T02:29:57.354Z,2.10
2022-11-30T02:32:32.015Z,2.10
2022-11-30T02:35:01.838Z,2.00
2022-11-30T02:37:29.633Z,2.00
2022-11-30T02:39:57.663Z,2.00
2022-11-30T02:42:24.299Z,2.10
2022-11-30T02:44:53.215Z,2.10
2022-11-30T02:47:26.301Z,2.10
2022-11-30T02:50:04.476Z,2.10
2022-11-30T02:52:32.558Z,2.10
2022-11-30T02:55:09.490Z,2.20
2022-11-30T02:57:36.697Z,2.10
2022-11-30T03:00:09.102Z,2.10
2022-11-30T03:02:35.802Z,2.20
2022-11-30T03:05:03.444Z,2.20
2022-11-30T03:07:30.242Z,2.20
2022-11-30T03:09:57.019Z,2.20
2022-11-30T03:12:23.711Z,2.20
2022-11-30T03:14:50.334Z,2.20
2022-11-30T03:17:17.237Z,2.20
2022-11-30T03:19:43.953Z,2.20
2022-11-30T03:22:10.713Z,2.20
2022-11-30T03:24:37.334Z,2.20
2022-11-30T03:27:04.127Z,2.20
2022-11-30T03:29:30.833Z,2.20
2022-11-30T03:31:57.454Z,2.20
2022-11-30T03:34:26.506Z,2.20
2022-11-30T03:36:53.698Z,2.20
2022-11-30T03:39:20.458Z,2.20
2022-11-30T03:41:47.119Z,2.20
2022-11-30T03:44:13.746Z,2.20
2022-11-30T03:46:40.840Z,2.20
2022-11-30T03:49:07.623Z,2.20
2022-11-30T03:51:34.317Z,2.20
2022-11-30T03:54:01.439Z,2.20
2022-11-30T03:56:28.666Z,2.20
2022-11-30T03:58:55.424Z,2.20
2022-11-30T04:01:23.609Z,2.20
2022-11-30T04:03:54.239Z,2.10
2022-11-30T04:06:21.631Z,2.10
2022-11-30T04:08:48.385Z,2.10
2022-11-30T04:11:15.943Z,2.10
2022-11-30T04:13:43.209Z,2.10
2022-11-30T04:16:10.426Z,2.10
2022-11-30T04:18:38.379Z,2.10
2022-11-30T04:21:06.625Z,2.10
2022-11-30T04:23:36.429Z,2.10
2022-11-30T04:26:08.064Z,2.10
2022-11-30T04:28:35.413Z,2.10
2022-11-30T04:31:02.844Z,2.10
2022-11-30T04:33:30.322Z,2.10
2022-11-30T04:36:00.835Z,2.10
2022-11-30T04:38:28.040Z,2.10
2022-11-30T04:40:55.055Z,2.10
2022-11-30T04:43:21.751Z,2.10
2022-11-30T04:45:49.406Z,2.10
2022-11-30T04:48:17.891Z,2.10
2022-11-30T04:50:45.395Z,2.10
2022-11-30T04:53:12.306Z,2.10
2022-11-30T04:55:39.244Z,2.00
2022-11-30T04:58:06.672Z,2.00
2022-11-30T05:00:34.386Z,2.00
2022-11-30T05:03:01.150Z,2.00
2022-11-30T05:05:28.034Z,2.00
2022-11-30T05:07:59.362Z,2.00
2022-11-30T05:10:27.864Z,2.00
2022-11-30T05:12:54.802Z,2.00
2022-11-30T05:15:21.817Z,2.00
2022-11-30T05:17:48.558Z,1.90
2022-11-30T05:20:15.600Z,1.90
2022-11-30T05:22:42.321Z,2.00
2022-11-30T05:25:09.889Z,2.00
2022-11-30T05:27:37.134Z,2.00
2022-11-30T05:30:05.034Z,2.00
2022-11-30T05:32:31.932Z,2.00
2022-11-30T05:34:58.870Z,2.00
2022-11-30T05:37:25.752Z,2.00
2022-11-30T05:39:52.511Z,2.00
2022-11-30T05:42:19.234Z,2.00
2022-11-30T05:44:46.396Z,2.00
2022-11-30T05:47:13.526Z,2.00
2022-11-30T05:49:40.165Z,2.00
2022-11-30T05:52:06.833Z,2.00
2022-11-30T05:54:34.332Z,2.10
2022-11-30T05:57:01.374Z,2.00
2022-11-30T05:59:28.044Z,2.00
2022-11-30T06:01:54.893Z,1.90
2022-11-30T06:04:22.406Z,2.00
2022-11-30T06:06:49.529Z,2.00
2022-11-30T06:09:16.431Z,2.00
2022-11-30T06:11:43.096Z,1.90
2022-11-30T06:14:09.953Z,1.90
2022-11-30T06:16:41.503Z,1.90
2022-11-30T06:19:08.346Z,1.90
2022-11-30T06:21:35.351Z,1.90
2022-11-30T06:24:02.005Z,1.80
2022-11-30T06:26:28.654Z,1.90
2022-11-30T06:28:55.483Z,1.90
2022-11-30T06:31:22.828Z,2.00
2022-11-30T06:33:49.681Z,2.00
2022-11-30T06:36:22.728Z,2.00
2022-11-30T06:38:49.875Z,2.00
2022-11-30T06:41:17.445Z,1.90
2022-11-30T06:43:44.093Z,1.90
2022-11-30T06:46:11.448Z,1.90
2022-11-30T06:48:38.233Z,1.90
2022-11-30T06:51:09.537Z,2.00
2022-11-30T06:53:37.316Z,2.00
2022-11-30T06:56:09.999Z,2.00
2022-11-30T06:58:38.517Z,2.00
2022-11-30T07:01:10.695Z,2.00
2022-11-30T07:03:37.840Z,1.90
2022-11-30T07:06:10.241Z,1.80
2022-11-30T07:08:37.370Z,1.80
2022-11-30T07:11:04.840Z,1.80
2022-11-30T07:13:31.690Z,1.90
2022-11-30T07:15:58.396Z,1.90
2022-11-30T07:18:30.316Z,1.90
2022-11-30T07:21:02.678Z,1.90
2022-11-30T07:23:54.094Z,1.90
2022-11-30T07:26:23.114Z,2.00
2022-11-30T07:28:54.696Z,1.90
2022-11-30T07:31:30.229Z,2.00
2022-11-30T07:33:59.244Z,2.00
2022-11-30T07:36:27.220Z,2.00
2022-11-30T07:38:53.867Z,2.10
2022-11-30T07:41:20.519Z,2.10
2022-11-30T07:43:47.151Z,2.20
2022-11-30T07:46:15.466Z,2.30
2022-11-30T07:48:43.851Z,2.30
2022-11-30T07:51:16.732Z,2.40
2022-11-30T07:53:44.489Z,2.40
2022-11-30T07:56:19.158Z,2.50
2022-11-30T07:58:46.874Z,2.50
2022-11-30T08:01:19.407Z,2.50
2022-11-30T08:03:46.189Z,2.60
2022-11-30T08:06:15.468Z,2.60
2022-11-30T08:08:44.350Z,2.60
2022-11-30T08:11:13.454Z,2.70
2022-11-30T08:13:40.387Z,2.60
2022-11-30T08:16:10.187Z,2.60
2022-11-30T08:18:36.992Z,2.70
2022-11-30T08:21:06.562Z,2.70
2022-11-30T08:23:37.129Z,2.50
2022-11-30T08:26:10.002Z,2.50
2022-11-30T08:28:36.991Z,2.50
2022-11-30T08:31:06.656Z,2.60
2022-11-30T08:33:34.618Z,2.60
2022-11-30T08:36:18.285Z,2.70
2022-11-30T08:38:46.104Z,2.80
2022-11-30T08:41:15.366Z,2.80
2022-11-30T08:43:42.636Z,2.90
2022-11-30T08:49:19.897Z,3.00
2022-11-30T08:52:15.822Z,3.00
2022-11-30T08:54:33.591Z,2.90
2022-11-30T08:57:00.299Z,2.90
2022-11-30T08:59:26.972Z,2.90
2022-11-30T09:01:53.819Z,3.00
2022-11-30T09:04:20.471Z,3.10
2022-11-30T09:06:47.135Z,3.00
2022-11-30T09:09:13.852Z,3.10
2022-11-30T09:11:41.231Z,3.20
2022-11-30T09:14:12.223Z,3.20
2022-11-30T09:16:38.866Z,3.20
2022-11-30T09:19:05.587Z,3.20
2022-11-30T09:21:32.364Z,3.20
2022-11-30T09:23:59.030Z,3.20
2022-11-30T09:26:25.907Z,3.10
2022-11-30T09:28:54.142Z,3.30
2022-11-30T09:31:23.676Z,3.30
2022-11-30T09:33:50.619Z,3.30
2022-11-30T09:36:20.078Z,3.40
2022-11-30T09:38:47.813Z,3.50
2022-11-30T09:41:33.145Z,3.60
2022-11-30T09:44:14.710Z,3.70
2022-11-30T09:46:53.947Z,3.70
2022-11-30T09:49:31.777Z,3.70
2022-11-30T09:52:04.237Z,3.70
2022-11-30T09:54:43.516Z,3.70
2022-11-30T09:57:26.556Z,3.70
2022-11-30T10:00:02.410Z,3.60
2022-11-30T10:02:32.095Z,3.60
2022-11-30T10:04:59.511Z,3.70
2022-11-30T10:07:51.735Z,3.80
2022-11-30T10:10:46.307Z,3.70
2022-11-30T10:13:50.665Z,3.80
2022-11-30T10:16:47.188Z,3.70
2022-11-30T10:19:45.899Z,3.80
2022-11-30T10:22:18.697Z,3.80
2022-11-30T10:25:12.381Z,3.80
2022-11-30T10:27:52.560Z,3.90
2022-11-30T10:30:25.260Z,3.80
2022-11-30T10:32:58.927Z,3.90
2022-11-30T10:35:44.507Z,3.80
2022-11-30T10:38:31.929Z,3.70
2022-11-30T10:41:09.777Z,3.70
2022-11-30T10:43:52.894Z,3.80
2022-11-30T10:46:39.752Z,3.80
2022-11-30T10:49:23.287Z,3.90
2022-11-30T10:52:01.666Z,3.90
2022-11-30T10:54:30.636Z,3.80
2022-11-30T10:57:03.460Z,3.80
2022-11-30T10:59:51.400Z,3.80
2022-11-30T11:02:39.941Z,3.90
2022-11-30T11:05:31.083Z,4.00
2022-11-30T11:08:07.091Z,4.10
2022-11-30T11:10:52.474Z,4.00
2022-11-30T11:13:43.081Z,4.00
2022-11-30T11:16:12.565Z,4.00
2022-11-30T11:18:55.384Z,3.90
2022-11-30T11:21:23.687Z,3.90
2022-11-30T11:23:52.917Z,3.90
2022-11-30T11:26:27.760Z,4.00
2022-11-30T11:28:56.730Z,3.90
2022-11-30T11:31:44.121Z,3.90
2022-11-30T11:34:31.862Z,3.90
2022-11-30T11:37:33.694Z,3.90
2022-11-30T11:40:20.280Z,3.80
2022-11-30T11:42:49.855Z,3.90
2022-11-30T11:45:23.376Z,3.90
2022-11-30T11:48:05.549Z,3.80
2022-11-30T11:53:55.934Z,3.70
2022-11-30T11:56:28.878Z,3.80
2022-11-30T11:59:09.645Z,3.80
2022-11-30T12:01:42.434Z,3.90
2022-11-30T12:04:17.952Z,4.00
2022-11-30T12:06:47.499Z,4.00
2022-11-30T12:09:31.264Z,3.70
2022-11-30T12:11:58.012Z,3.80
2022-11-30T12:14:25.536Z,3.70
2022-11-30T12:17:24.295Z,3.80
2022-11-30T12:20:14.328Z,3.80
2022-11-30T12:22:50.396Z,3.90
2022-11-30T12:25:41.927Z,3.80
2022-11-30T12:28:26.997Z,3.90
2022-11-30T12:31:11.534Z,3.90
2022-11-30T12:34:17.085Z,3.90
2022-11-30T12:36:53.883Z,3.90
2022-11-30T12:39:48.490Z,3.70
2022-11-30T12:42:17.755Z,3.80
2022-11-30T12:45:19.183Z,3.90
2022-11-30T12:48:05.391Z,3.90
2022-11-30T12:50:32.048Z,3.80
2022-11-30T12:53:18.859Z,3.70
2022-11-30T12:56:17.350Z,3.70
2022-11-30T12:59:03.793Z,3.70
2022-11-30T13:01:59.547Z,3.80
2022-11-30T13:08:24.488Z,3.80
2022-11-30T13:10:56.859Z,3.90
2022-11-30T13:13:31.234Z,4.00
2022-11-30T13:15:59.688Z,4.00
2022-11-30T13:18:27.312Z,4.00
2022-11-30T13:21:13.784Z,4.00
2022-11-30T13:23:52.750Z,3.90
2022-11-30T13:26:36.334Z,3.90
2022-11-30T13:29:14.375Z,3.90
2022-11-30T13:31:48.311Z,3.90
2022-11-30T13:34:27.322Z,3.60
2022-11-30T13:37:09.639Z,3.50
2022-11-30T13:39:51.402Z,3.60
2022-11-30T13:42:30.074Z,3.70
2022-11-30T13:44:57.804Z,3.60
2022-11-30T13:47:29.666Z,3.60
2022-11-30T13:50:05.247Z,3.50
2022-11-30T13:53:02.869Z,3.50
2022-11-30T13:55:41.663Z,3.50
2022-11-30T13:58:10.809Z,3.50
2022-11-30T14:00:37.450Z,3.40
2022-11-30T14:03:22.293Z,3.30
2022-11-30T14:05:53.641Z,3.30
2022-11-30T14:08:23.052Z,3.20
2022-11-30T14:10:51.615Z,3.20
2022-11-30T14:13:22.633Z,3.10
2022-11-30T14:16:01.293Z,3.10
2022-11-30T14:18:31.752Z,3.00
2022-11-30T14:21:02.722Z,3.00
2022-11-30T14:23:51.110Z,2.90
2022-11-30T14:26:24.704Z,2.90
2022-11-30T14:29:01.885Z,2.90
2022-11-30T14:31:37.204Z,2.80
2022-11-30T14:34:10.139Z,2.80
2022-11-30T14:36:43.616Z,2.80
2022-11-30T14:39:38.094Z,2.80
2022-11-30T14:42:05.741Z,2.80
2022-11-30T14:44:39.459Z,2.80
2022-11-30T14:47:21.134Z,2.90
2022-11-30T14:49:52.008Z,2.90
2022-11-30T14:52:38.206Z,2.80
2022-11-30T14:55:27.003Z,2.80
2022-11-30T14:58:25.529Z,2.70
2022-11-30T15:00:52.885Z,2.60
2022-11-30T15:03:37.360Z,2.60
2022-11-30T15:06:07.890Z,2.60
2022-11-30T15:08:38.401Z,2.60
2022-11-30T15:11:08.307Z,2.60
2022-11-30T15:13:39.406Z,2.50
2022-11-30T15:16:15.829Z,2.50
2022-11-30T15:18:42.658Z,2.40
2022-11-30T15:21:17.356Z,2.40
2022-11-30T15:23:50.716Z,2.30
2022-11-30T15:26:24.324Z,2.30
2022-11-30T15:29:17.426Z,2.30
2022-11-30T15:31:47.447Z,2.20
2022-11-30T15:34:46.656Z,2.30
2022-11-30T15:37:13.733Z,2.20
2022-11-30T15:39:44.557Z,2.30
2022-11-30T15:42:20.288Z,2.30
2022-11-30T15:44:47.541Z,2.30
2022-11-30T15:47:36.305Z,2.30
2022-11-30T15:50:20.372Z,2.30
2022-11-30T15:52:55.681Z,2.30
2022-11-30T15:55:48.948Z,2.30
2022-11-30T15:58:29.084Z,2.30
2022-11-30T16:01:22.661Z,2.30
2022-11-30T16:03:55.582Z,2.20
2022-11-30T16:06:27.685Z,2.20
2022-11-30T16:08:55.486Z,2.20
2022-11-30T16:11:22.412Z,2.20
2022-11-30T16:13:49.080Z,2.20
2022-11-30T16:16:22.011Z,2.20
2022-11-30T16:18:49.140Z,2.10
2022-11-30T16:21:18.686Z,2.10
2022-11-30T16:23:45.783Z,2.00
2022-11-30T16:26:43.171Z,2.10
2022-11-30T16:29:01.963Z,2.10
2022-11-30T16:31:28.953Z,2.10
2022-11-30T16:33:55.706Z,2.10
2022-11-30T16:36:22.379Z,2.10
2022-11-30T16:38:50.897Z,2.10
2022-11-30T16:41:25.096Z,2.10
2022-11-30T16:43:54.363Z,2.10
2022-11-30T16:46:31.347Z,2.10
2022-11-30T16:48:58.189Z,2.10
2022-11-30T16:51:31.492Z,2.10
2022-11-30T16:53:58.509Z,2.10
2022-11-30T16:56:25.523Z,2.20
2022-11-30T16:58:52.599Z,2.20
2022-11-30T17:01:34.555Z,2.10
2022-11-30T17:04:11.892Z,2.10
2022-11-30T17:06:38.826Z,2.10
2022-11-30T17:09:05.909Z,2.10
2022-11-30T17:11:35.135Z,2.10
2022-11-30T17:14:01.824Z,2.10
2022-11-30T17:16:28.542Z,2.00
2022-11-30T17:18:55.319Z,2.00
2022-11-30T17:21:31.388Z,2.00
2022-11-30T17:23:58.612Z,2.00
2022-11-30T17:26:25.758Z,2.00
2022-11-30T17:28:52.600Z,2.00
2022-11-30T17:31:19.757Z,2.00
2022-11-30T17:33:48.539Z,2.00
2022-11-30T17:36:16.437Z,2.00
2022-11-30T17:38:44.335Z,2.00
2022-11-30T17:41:19.360Z,2.00
2022-11-30T17:43:46.915Z,2.00
2022-11-30T17:46:16.728Z,2.00
2022-11-30T17:48:44.308Z,2.00
2022-11-30T17:51:12.172Z,2.10
2022-11-30T17:53:39.875Z,2.00
2022-11-30T17:56:07.976Z,2.10
2022-11-30T17:58:41.442Z,2.10
2022-11-30T18:01:27.066Z,2.00
2022-11-30T18:03:55.281Z,2.00
2022-11-30T18:06:22.019Z,2.10
2022-11-30T18:08:48.947Z,2.10
2022-11-30T18:11:18.889Z,2.10
2022-11-30T18:13:45.792Z,2.10
2022-11-30T18:16:22.406Z,2.00
2022-11-30T18:18:49.257Z,2.00
2022-11-30T18:21:18.721Z,2.00
2022-11-30T18:23:45.919Z,2.00
2022-11-30T18:26:15.493Z,2.00
2022-11-30T18:28:42.765Z,2.00
2022-11-30T18:31:09.642Z,2.00
2022-11-30T18:33:37.231Z,2.00
2022-11-30T18:36:08.311Z,2.00
2022-11-30T18:38:38.336Z,2.00
2022-11-30T18:41:06.549Z,2.00
2022-11-30T18:43:34.119Z,2.00
2022-11-30T18:46:05.535Z,2.00
2022-11-30T18:48:32.589Z,2.00
2022-11-30T18:50:59.313Z,1.90
2022-11-30T18:53:25.966Z,2.00
2022-11-30T18:55:52.734Z,1.90
2022-11-30T18:58:19.403Z,1.90
2022-11-30T19:00:46.053Z,1.90
2022-11-30T19:03:12.767Z,1.90
2022-11-30T19:05:40.743Z,1.90
2022-11-30T19:08:11.253Z,1.90
2022-11-30T19:10:39.681Z,1.90
2022-11-30T19:13:06.936Z,2.00
2022-11-30T19:15:38.727Z,2.00
2022-11-30T19:18:05.454Z,2.00
2022-11-30T19:20:36.953Z,2.00
2022-11-30T19:23:03.603Z,2.00
2022-11-30T19:25:30.292Z,2.00
2022-11-30T19:27:57.088Z,2.00
2022-11-30T19:30:24.005Z,2.00
2022-11-30T19:32:50.883Z,2.10
2022-11-30T19:35:17.581Z,2.00
2022-11-30T19:37:44.582Z,2.00
2022-11-30T19:40:11.973Z,2.10
2022-11-30T19:42:38.749Z,2.10
2022-11-30T19:45:05.871Z,2.10
2022-11-30T19:47:32.658Z,2.10
2022-11-30T19:49:59.464Z,2.10
2022-11-30T19:52:26.096Z,2.10
2022-11-30T19:54:52.754Z,2.10
2022-11-30T19:57:19.506Z,2.10
2022-11-30T19:59:46.566Z,2.10
2022-11-30T20:02:14.175Z,2.10
2022-11-30T20:04:40.815Z,2.10
2022-11-30T20:07:07.475Z,2.00
2022-11-30T20:09:34.165Z,2.10
2022-11-30T20:12:00.932Z,2.00
2022-11-30T20:14:27.710Z,2.00
2022-11-30T20:16:54.351Z,2.00
2022-11-30T20:19:21.191Z,2.00
2022-11-30T20:21:48.317Z,2.00
2022-11-30T20:24:15.531Z,2.00
2022-11-30T20:26:43.812Z,2.00
2022-11-30T20:29:16.264Z,2.00
2022-11-30T20:31:45.224Z,2.10
2022-11-30T20:34:11.940Z,2.10
2022-11-30T20:36:38.642Z,2.00
2022-11-30T20:39:06.192Z,2.00
2022-11-30T20:41:33.973Z,2.00
2022-11-30T20:44:00.889Z,2.00
2022-11-30T20:46:31.140Z,2.00
2022-11-30T20:48:59.108Z,2.00
2022-11-30T20:51:32.765Z,1.90
2022-11-30T20:54:02.324Z,2.00
2022-11-30T20:56:29.007Z,1.90
2022-11-30T20:58:56.176Z,2.00
2022-11-30T21:01:23.401Z,1.90
2022-11-30T21:03:50.556Z,1.90
2022-11-30T21:06:17.360Z,1.90
2022-11-30T21:08:44.521Z,1.90
2022-11-30T21:11:14.431Z,1.90
2022-11-30T21:13:44.048Z,1.90
2022-11-30T21:16:11.786Z,1.90
2022-11-30T21:18:40.944Z,1.90
2022-11-30T21:21:11.670Z,1.90
2022-11-30T21:23:38.609Z,2.00
2022-11-30T21:26:07.480Z,1.90
2022-11-30T21:28:38.098Z,1.90
2022-11-30T21:31:06.119Z,2.00
2022-11-30T21:33:33.260Z,2.00
2022-11-30T21:36:00.077Z,2.00
2022-11-30T21:38:27.240Z,2.00
2022-11-30T21:41:03.585Z,2.00
2022-11-30T21:43:33.692Z,2.00
2022-11-30T21:46:03.536Z,2.00
2022-11-30T21:48:32.805Z,2.00
2022-11-30T21:51:01.979Z,2.00
2022-11-30T21:53:29.832Z,2.00
2022-11-30T21:56:02.334Z,2.00
2022-11-30T21:58:31.254Z,2.00
2022-11-30T22:00:59.442Z,1.90
2022-11-30T22:03:26.686Z,2.00
2022-11-30T22:06:06.696Z,1.90
2022-11-30T22:08:34.514Z,1.90
2022-11-30T22:11:02.808Z,1.90
2022-11-30T22:13:30.739Z,1.90
2022-11-30T22:16:02.477Z,1.80
2022-11-30T22:18:29.260Z,1.80
2022-11-30T22:21:15.384Z,1.80
2022-11-30T22:23:49.104Z,1.80
2022-11-30T22:26:18.804Z,1.70
2022-11-30T22:28:47.576Z,1.70
2022-11-30T22:31:16.432Z,1.70
2022-11-30T22:33:43.930Z,1.70
2022-11-30T22:36:16.598Z,1.60
2022-11-30T22:38:43.792Z,1.60
2022-11-30T22:41:16.521Z,1.60
2022-11-30T22:43:45.517Z,1.60
2022-11-30T22:46:17.704Z,1.60
2022-11-30T22:48:45.753Z,1.60
2022-11-30T22:51:15.108Z,1.50
2022-11-30T22:53:41.868Z,1.50
2022-11-30T22:56:13.005Z,1.50
2022-11-30T22:58:41.068Z,1.50
2022-11-30T23:01:26.314Z,1.50
2022-11-30T23:03:56.315Z,1.40
2022-11-30T23:06:24.143Z,1.40
2022-11-30T23:08:51.826Z,1.40
2022-11-30T23:11:20.742Z,1.40
2022-11-30T23:13:47.681Z,1.40
2022-11-30T23:16:15.429Z,1.40
2022-11-30T23:18:45.410Z,1.30
2022-11-30T23:21:15.345Z,1.30
2022-11-30T23:23:43.264Z,1.30
2022-11-30T23:26:19.313Z,1.30
2022-11-30T23:28:48.258Z,1.30
2022-11-30T23:31:33.776Z,1.30
2022-11-30T23:34:13.805Z,1.30
2022-11-30T23:36:40.757Z,1.30
2022-11-30T23:39:13.241Z,1.30
2022-11-30T23:41:40.943Z,1.40
2022-11-30T23:44:08.237Z,1.40
2022-11-30T23:46:35.356Z,1.40
2022-11-30T23:49:02.388Z,1.30
2022-11-30T23:51:29.535Z,1.30
2022-11-30T23:53:56.202Z,1.30
2022-11-30T23:56:24.509Z,1.30
2022-11-30T23:58:52.150Z,1.30
